Time;durP1;ratioP1;P1;durP2;ratioP2;P2;SDS_P1;SDS_P2;PMS_P1;PMS_P2;Temp;Humidity;BMP_temperature;BMP_pressure;BME280_temperature;BME280_humidity;BME280_pressure;Samples;Min_cycle;Max_cycle;Signal;HPM_P1;HPM_P2
2022/01/31 00:07:43;;;;;;;30.50;6.20;;;3.80;99.90;;;;;;4906427;28;20209;-83
2022/01/31 00:11:42;;;;;;;33.50;7.00;;;3.80;99.90;;;;;;4890543;29;20250;-83
2022/01/31 00:15:36;;;;;;;37.97;7.83;;;3.80;99.90;;;;;;4917498;29;20225;-83
2022/01/31 00:18:56;;;;;;;35.37;6.57;;;3.80;99.90;;;;;;4906491;29;20262;-83
2022/01/31 00:22:25;;;;;;;35.67;6.17;;;3.70;99.90;;;;;;4910958;29;20216;-83
2022/01/31 00:25:35;;;;;;;33.30;6.50;;;3.70;99.90;;;;;;4938912;29;20271;-86
2022/01/31 00:28:14;;;;;;;33.27;5.40;;;3.70;99.90;;;;;;4959857;29;20200;-83
2022/01/31 00:30:57;;;;;;;28.40;5.73;;;3.70;99.90;;;;;;4925812;29;20193;-82
2022/01/31 00:33:37;;;;;;;38.97;6.30;;;3.70;99.90;;;;;;4947852;28;20188;-83
2022/01/31 00:36:23;;;;;;;36.23;6.20;;;3.70;99.90;;;;;;4990661;28;20191;-83
2022/01/31 00:43:21;;;;;;;27.03;5.80;;;3.70;99.90;;;;;;4959910;29;20220;-83
2022/01/31 00:54:25;;;;;;;38.63;6.73;;;3.80;99.90;;;;;;4912713;29;20265;-85
2022/01/31 00:56:51;;;;;;;41.13;5.90;;;3.80;99.90;;;;;;4920728;29;20209;-84
2022/01/31 00:59:19;;;;;;;30.93;5.87;;;3.70;99.90;;;;;;4943025;29;20176;-84
2022/01/31 01:01:46;;;;;;;31.23;5.17;;;3.70;99.90;;;;;;4942401;29;20184;-84
2022/01/31 01:04:18;;;;;;;34.90;5.37;;;3.70;99.90;;;;;;4942523;29;20181;-83
2022/01/31 01:06:46;;;;;;;33.20;5.70;;;3.70;99.90;;;;;;4942217;28;20204;-84
2022/01/31 01:09:12;;;;;;;34.30;5.33;;;3.70;99.90;;;;;;4948850;28;20268;-85
2022/01/31 01:11:44;;;;;;;27.93;5.20;;;3.60;99.90;;;;;;4942978;29;20212;-82
2022/01/31 01:14:10;;;;;;;26.57;5.40;;;3.60;99.90;;;;;;4942471;29;20185;-83
2022/01/31 01:16:36;;;;;;;30.80;5.67;;;3.70;99.90;;;;;;4942306;29;20584;-85
2022/01/31 01:19:10;;;;;;;29.73;6.63;;;3.60;99.90;;;;;;4941688;29;20169;-84
2022/01/31 01:21:38;;;;;;;29.40;5.03;;;3.60;99.90;;;;;;4940179;29;20171;-84
2022/01/31 01:24:04;;;;;;;36.90;5.87;;;3.70;99.90;;;;;;4940491;29;20207;-83
2022/01/31 01:26:30;;;;;;;31.27;5.93;;;3.70;99.90;;;;;;4930642;29;20641;-83
2022/01/31 01:28:59;;;;;;;31.20;5.43;;;3.70;99.90;;;;;;4939958;29;20304;-83
2022/01/31 01:31:26;;;;;;;30.63;5.37;;;3.60;99.90;;;;;;4939927;29;20184;-83
2022/01/31 01:33:53;;;;;;;30.73;5.23;;;3.60;99.90;;;;;;4946977;29;20223;-83
2022/01/31 01:36:20;;;;;;;31.27;5.33;;;3.60;99.90;;;;;;4942128;29;20545;-83
2022/01/31 01:38:47;;;;;;;27.73;5.20;;;3.70;99.90;;;;;;4946067;28;20755;-83
2022/01/31 01:41:14;;;;;;;25.77;5.00;;;3.60;99.90;;;;;;4980776;28;20210;-84
2022/01/31 01:43:40;;;;;;;25.67;5.27;;;3.70;99.90;;;;;;4984829;28;20184;-84
2022/01/31 01:46:06;;;;;;;29.60;5.10;;;3.70;99.90;;;;;;4976861;28;20184;-84
2022/01/31 01:48:33;;;;;;;31.43;6.27;;;3.70;99.90;;;;;;4976206;28;20206;-84
2022/01/31 01:51:01;;;;;;;28.37;5.00;;;3.70;99.90;;;;;;4984914;28;20172;-83
2022/01/31 01:53:27;;;;;;;26.77;5.73;;;3.70;99.90;;;;;;4976748;28;20279;-84
2022/01/31 01:55:54;;;;;;;29.43;5.57;;;3.70;99.90;;;;;;4983336;28;20301;-82
2022/01/31 01:58:25;;;;;;;28.73;5.13;;;3.70;99.90;;;;;;4972474;28;20187;-84
2022/01/31 02:00:59;;;;;;;20.70;4.83;;;3.70;99.90;;;;;;4962902;28;20190;-83
2022/01/31 02:03:45;;;;;;;27.47;5.30;;;3.60;99.90;;;;;;4974616;28;20249;-84
2022/01/31 02:06:11;;;;;;;23.87;5.13;;;3.60;99.90;;;;;;4961991;28;20282;-83
2022/01/31 02:08:42;;;;;;;29.63;5.80;;;3.60;99.90;;;;;;4977590;28;20220;-84
2022/01/31 02:11:13;;;;;;;26.20;5.43;;;3.60;99.90;;;;;;4971100;28;20258;-84
2022/01/31 02:13:47;;;;;;;25.13;5.13;;;3.60;99.90;;;;;;4973721;28;20201;-84
2022/01/31 02:16:32;;;;;;;23.30;4.93;;;3.70;99.90;;;;;;4991890;28;20202;-84
2022/01/31 02:19:14;;;;;;;29.33;5.03;;;3.70;99.90;;;;;;4966212;28;20272;-83
2022/01/31 02:21:49;;;;;;;28.47;5.77;;;3.70;99.90;;;;;;4968930;28;20714;-84
2022/01/31 02:24:34;;;;;;;26.97;5.33;;;3.70;99.90;;;;;;4981591;28;20274;-84
2022/01/31 02:27:33;;;;;;;25.73;5.00;;;3.80;99.90;;;;;;4986219;28;20209;-83
2022/01/31 02:30:04;;;;;;;28.90;4.73;;;3.80;99.90;;;;;;4982498;28;20188;-82
2022/01/31 02:32:33;;;;;;;26.83;4.70;;;3.80;99.90;;;;;;4965049;28;20183;-83
2022/01/31 02:35:03;;;;;;;24.00;5.00;;;3.90;99.90;;;;;;4978777;28;20183;-82
2022/01/31 02:37:30;;;;;;;24.97;5.10;;;3.80;99.90;;;;;;4975587;28;20199;-83
2022/01/31 02:40:08;;;;;;;36.73;5.87;;;3.80;99.90;;;;;;4986615;28;20175;-84
2022/01/31 02:42:42;;;;;;;29.83;5.47;;;3.80;99.90;;;;;;4972019;28;20199;-84
2022/01/31 02:45:08;;;;;;;27.13;5.23;;;3.80;99.90;;;;;;4977352;28;20197;-84
2022/01/31 02:47:40;;;;;;;26.90;5.23;;;3.80;99.90;;;;;;4977601;28;20257;-83
2022/01/31 02:50:12;;;;;;;23.30;4.67;;;3.90;99.90;;;;;;4965182;28;20210;-84
2022/01/31 02:52:45;;;;;;;24.70;5.60;;;3.90;99.90;;;;;;4965342;28;20758;-84
2022/01/31 02:55:12;;;;;;;24.97;4.80;;;4.00;99.90;;;;;;4966701;28;20727;-83
2022/01/31 02:57:39;;;;;;;29.23;4.77;;;3.90;99.90;;;;;;4971033;28;20203;-84
2022/01/31 03:00:11;;;;;;;25.23;4.93;;;3.80;99.90;;;;;;4979947;28;20230;-83
2022/01/31 03:02:57;;;;;;;23.10;4.97;;;3.80;99.90;;;;;;4984295;28;20179;-83
2022/01/31 03:05:22;;;;;;;29.80;4.87;;;3.80;99.90;;;;;;4957973;28;20215;-84
2022/01/31 03:07:48;;;;;;;29.17;5.30;;;3.70;99.90;;;;;;4981842;28;20191;-84
2022/01/31 03:10:14;;;;;;;24.70;5.50;;;3.70;99.90;;;;;;4987136;28;20175;-83
2022/01/31 03:12:40;;;;;;;28.37;4.97;;;3.70;99.90;;;;;;4968490;28;20665;-83
2022/01/31 03:15:09;;;;;;;25.60;4.90;;;3.60;99.90;;;;;;4992286;28;20191;-85
2022/01/31 03:17:59;;;;;;;24.70;4.67;;;3.70;99.90;;;;;;4978741;28;20214;-84
2022/01/31 03:20:26;;;;;;;17.63;4.57;;;3.60;99.90;;;;;;4984191;28;20282;-84
2022/01/31 03:22:53;;;;;;;21.53;4.93;;;3.50;99.90;;;;;;4982706;28;20313;-84
2022/01/31 03:25:19;;;;;;;20.43;4.33;;;3.60;99.90;;;;;;4966110;28;20215;-84
2022/01/31 03:27:47;;;;;;;25.80;5.17;;;3.70;99.90;;;;;;4966138;28;20225;-84
2022/01/31 03:30:21;;;;;;;23.87;5.57;;;3.70;99.90;;;;;;4971912;28;20176;-83
2022/01/31 03:32:49;;;;;;;17.33;4.57;;;3.80;99.90;;;;;;4975690;28;20263;-83
2022/01/31 03:35:16;;;;;;;22.63;5.20;;;3.80;99.90;;;;;;4963118;28;20204;-83
2022/01/31 03:37:42;;;;;;;28.80;5.43;;;3.90;99.90;;;;;;4977341;28;20203;-81
2022/01/31 03:40:11;;;;;;;20.20;4.67;;;4.10;99.90;;;;;;4983742;28;20190;-81
2022/01/31 03:42:37;;;;;;;21.80;5.10;;;4.00;99.90;;;;;;4979735;28;20180;-80
2022/01/31 03:45:06;;;;;;;17.63;4.23;;;4.10;99.90;;;;;;4983238;28;20178;-81
2022/01/31 03:47:32;;;;;;;20.27;4.70;;;4.10;99.90;;;;;;4983647;28;20203;-81
2022/01/31 03:49:58;;;;;;;19.90;4.57;;;4.00;99.90;;;;;;4987638;28;20187;-81
2022/01/31 03:52:27;;;;;;;20.27;5.10;;;3.90;99.90;;;;;;4965061;28;20176;-81
2022/01/31 03:54:57;;;;;;;19.50;4.27;;;3.80;99.90;;;;;;4979371;28;20198;-82
2022/01/31 03:57:24;;;;;;;22.13;5.37;;;3.70;99.90;;;;;;4988359;28;20206;-81
2022/01/31 03:59:53;;;;;;;16.63;4.40;;;3.70;99.90;;;;;;4989810;28;20194;-81
2022/01/31 04:02:19;;;;;;;20.53;4.40;;;3.60;99.90;;;;;;4982941;28;20167;-81
2022/01/31 04:04:47;;;;;;;18.20;4.50;;;3.60;99.90;;;;;;4982633;28;20174;-81
2022/01/31 04:07:13;;;;;;;13.33;3.77;;;3.60;99.90;;;;;;5001036;28;20203;-81
2022/01/31 04:09:39;;;;;;;18.77;4.60;;;3.50;99.90;;;;;;4994705;28;20183;-80
2022/01/31 04:12:06;;;;;;;21.33;4.80;;;3.50;99.90;;;;;;4972696;28;20199;-81
2022/01/31 04:14:31;;;;;;;22.00;5.10;;;3.60;99.90;;;;;;4980667;28;20260;-80
2022/01/31 04:16:59;;;;;;;23.90;4.97;;;3.70;99.90;;;;;;4989759;28;20336;-81
2022/01/31 04:19:25;;;;;;;23.67;5.13;;;3.80;99.90;;;;;;4982218;28;20190;-80
2022/01/31 04:21:51;;;;;;;20.60;4.67;;;3.70;99.90;;;;;;5006656;28;20254;-82
2022/01/31 04:24:23;;;;;;;21.17;4.23;;;3.60;99.90;;;;;;5001596;28;20218;-81
2022/01/31 04:26:58;;;;;;;21.83;4.20;;;3.60;99.90;;;;;;5006053;28;20294;-81
2022/01/31 04:29:24;;;;;;;24.67;4.67;;;3.50;99.90;;;;;;4999303;28;20182;-80
2022/01/31 04:31:51;;;;;;;26.27;4.83;;;3.40;99.90;;;;;;4985501;28;20253;-81
2022/01/31 04:34:17;;;;;;;19.60;4.77;;;3.40;99.90;;;;;;4976661;28;20246;-81
2022/01/31 04:36:44;;;;;;;24.07;5.03;;;3.50;99.90;;;;;;4975907;28;20226;-81
2022/01/31 04:39:16;;;;;;;21.67;4.93;;;3.50;99.90;;;;;;4978014;28;20200;-81
2022/01/31 04:41:42;;;;;;;21.33;4.77;;;3.50;99.90;;;;;;4974692;28;20231;-81
2022/01/31 04:44:09;;;;;;;21.67;5.50;;;3.40;99.90;;;;;;4975977;28;20184;-80
2022/01/31 04:46:35;;;;;;;21.20;4.37;;;3.50;99.90;;;;;;4987827;28;20207;-82
2022/01/31 04:49:01;;;;;;;19.00;4.90;;;3.40;99.90;;;;;;4979707;28;20202;-82
2022/01/31 04:51:26;;;;;;;19.67;4.87;;;3.50;99.90;;;;;;4986552;28;20243;-81
2022/01/31 04:53:52;;;;;;;31.83;5.70;;;3.30;99.90;;;;;;5004691;28;20212;-81
2022/01/31 04:56:18;;;;;;;23.07;4.40;;;3.30;99.90;;;;;;5004135;28;20185;-81
2022/01/31 04:58:45;;;;;;;25.10;4.70;;;3.30;99.90;;;;;;5005217;28;20218;-81
2022/01/31 05:01:11;;;;;;;20.17;4.40;;;3.40;99.90;;;;;;5003835;28;20520;-82
2022/01/31 05:03:37;;;;;;;27.27;5.53;;;3.30;99.90;;;;;;5004708;28;20186;-82
2022/01/31 05:06:03;;;;;;;23.87;5.20;;;3.30;99.90;;;;;;5006354;28;20211;-81
2022/01/31 05:08:29;;;;;;;20.60;5.60;;;3.30;99.90;;;;;;4977344;28;20203;-81
2022/01/31 05:10:56;;;;;;;21.20;4.93;;;3.30;99.90;;;;;;5002875;28;20234;-81
2022/01/31 05:13:22;;;;;;;20.10;4.77;;;3.20;99.90;;;;;;4975067;28;20187;-81
2022/01/31 05:15:48;;;;;;;20.00;4.20;;;3.20;99.90;;;;;;5004988;28;20179;-81
2022/01/31 05:18:16;;;;;;;27.33;5.10;;;3.20;99.90;;;;;;5004341;28;20210;-81
2022/01/31 05:20:44;;;;;;;26.03;5.47;;;3.20;99.90;;;;;;5004437;28;20210;-82
2022/01/31 05:23:10;;;;;;;27.27;5.23;;;3.20;99.90;;;;;;4988091;28;20191;-82
2022/01/31 05:25:37;;;;;;;23.33;4.80;;;3.20;99.90;;;;;;4971091;28;20218;-82
2022/01/31 05:28:03;;;;;;;27.90;5.60;;;3.20;99.90;;;;;;4982591;28;20217;-81
2022/01/31 05:30:29;;;;;;;30.40;5.63;;;3.10;99.90;;;;;;4978457;28;20183;-81
2022/01/31 05:32:55;;;;;;;28.47;4.77;;;3.10;99.90;;;;;;4970908;28;20184;-81
2022/01/31 05:35:21;;;;;;;29.93;5.90;;;3.20;99.90;;;;;;4978221;28;20180;-81
2022/01/31 05:37:46;;;;;;;21.53;4.63;;;3.30;99.90;;;;;;4974474;28;20212;-82
2022/01/31 05:40:12;;;;;;;30.00;5.53;;;3.40;99.90;;;;;;4978651;28;20183;-82
2022/01/31 05:42:47;;;;;;;28.53;5.37;;;3.30;99.90;;;;;;4988995;28;20187;-81
2022/01/31 05:45:13;;;;;;;22.53;4.90;;;3.40;99.90;;;;;;5010001;28;20277;-81
2022/01/31 05:47:39;;;;;;;24.47;5.13;;;3.30;99.90;;;;;;4975315;28;20200;-81
2022/01/31 05:50:05;;;;;;;25.47;4.73;;;3.20;99.90;;;;;;4982992;28;20218;-81
2022/01/31 05:52:34;;;;;;;30.50;6.17;;;3.10;99.90;;;;;;4978448;28;20179;-81
2022/01/31 05:55:00;;;;;;;24.33;6.50;;;3.10;99.90;;;;;;4981608;28;20212;-82
2022/01/31 05:57:26;;;;;;;22.70;6.13;;;3.10;99.90;;;;;;4990211;28;20211;-83
2022/01/31 05:59:52;;;;;;;29.93;6.23;;;3.00;99.90;;;;;;4988941;28;20179;-82
2022/01/31 06:02:18;;;;;;;25.87;5.37;;;3.00;99.90;;;;;;5011044;28;20214;-83
2022/01/31 06:04:46;;;;;;;24.00;5.57;;;3.00;99.90;;;;;;4966491;28;20188;-82
2022/01/31 06:07:12;;;;;;;25.87;5.40;;;2.90;99.90;;;;;;4964498;28;20208;-81
2022/01/31 06:09:45;;;;;;;27.40;5.70;;;2.90;99.90;;;;;;4984500;28;20214;-81
2022/01/31 06:12:12;;;;;;;22.10;5.47;;;2.80;99.90;;;;;;4993138;28;20531;-80
2022/01/31 06:14:39;;;;;;;32.73;6.57;;;2.70;99.90;;;;;;4970645;28;20219;-80
2022/01/31 06:17:05;;;;;;;28.43;5.70;;;2.80;99.90;;;;;;4988262;28;20269;-80
2022/01/31 06:19:30;;;;;;;32.33;6.97;;;2.70;99.90;;;;;;4987773;28;20207;-80
2022/01/31 06:21:56;;;;;;;23.10;5.53;;;2.80;99.90;;;;;;4984801;28;20313;-80
2022/01/31 06:24:23;;;;;;;28.97;6.43;;;2.60;99.90;;;;;;4986745;28;20186;-82
2022/01/31 06:26:49;;;;;;;26.57;6.43;;;2.60;99.90;;;;;;4986919;28;20206;-81
2022/01/31 06:29:24;;;;;;;23.93;6.03;;;2.50;99.90;;;;;;4979063;28;20531;-82
2022/01/31 06:32:29;;;;;;;;;;;;;;;;;;;;;
2022/01/31 06:35:15;;;;;;;28.80;6.63;;;2.50;99.90;;;;;;4995644;28;20833;-81
2022/01/31 06:37:41;;;;;;;19.53;6.07;;;2.50;99.90;;;;;;4970252;28;20207;-80
2022/01/31 06:40:10;;;;;;;32.33;6.77;;;2.40;99.90;;;;;;4983230;28;20206;-80
2022/01/31 06:42:36;;;;;;;23.67;5.67;;;2.30;99.90;;;;;;4959352;28;20186;-82
2022/01/31 06:45:03;;;;;;;31.90;6.10;;;2.20;99.90;;;;;;4983740;28;20194;-82
2022/01/31 06:47:29;;;;;;;32.40;6.53;;;2.10;99.90;;;;;;4953808;28;20195;-80
2022/01/31 06:49:56;;;;;;;23.27;5.33;;;2.10;99.90;;;;;;4968154;28;20198;-81
2022/01/31 06:52:23;;;;;;;23.03;5.70;;;2.10;99.90;;;;;;4969961;28;20179;-80
2022/01/31 06:54:51;;;;;;;23.27;5.63;;;2.10;99.90;;;;;;4967044;28;20316;-80
2022/01/31 06:57:24;;;;;;;35.10;6.30;;;2.10;99.90;;;;;;4979319;28;20251;-80
2022/01/31 06:59:50;;;;;;;30.00;6.60;;;2.00;99.90;;;;;;4959625;28;20179;-80
2022/01/31 07:02:18;;;;;;;23.93;6.37;;;1.90;99.90;;;;;;4967723;28;20178;-81
2022/01/31 07:04:44;;;;;;;28.67;6.40;;;1.90;99.90;;;;;;4982878;28;20623;-81
2022/01/31 07:07:10;;;;;;;27.27;6.00;;;1.80;99.90;;;;;;4982541;28;20238;-81
2022/01/31 07:09:36;;;;;;;31.53;6.23;;;1.70;99.90;;;;;;4984154;28;20267;-81
2022/01/31 07:12:05;;;;;;;27.30;6.70;;;1.90;99.90;;;;;;4983455;28;20679;-82
2022/01/31 07:14:31;;;;;;;31.60;6.30;;;1.80;99.90;;;;;;4980470;28;20184;-83
2022/01/31 07:17:04;;;;;;;29.17;7.10;;;1.80;99.90;;;;;;4986051;28;20325;-81
2022/01/31 07:19:33;;;;;;;22.40;5.70;;;1.90;99.90;;;;;;4963774;28;20181;-82
2022/01/31 07:21:59;;;;;;;25.23;6.37;;;1.80;99.90;;;;;;4995277;28;20216;-81
2022/01/31 07:24:51;;;;;;;24.83;5.70;;;1.90;99.90;;;;;;4979131;28;20179;-82
2022/01/31 07:27:12;;;;;;;32.57;6.80;;;1.90;99.90;;;;;;4973630;28;20226;-80
2022/01/31 07:29:39;;;;;;;35.03;7.43;;;1.90;99.90;;;;;;4981936;28;20168;-80
2022/01/31 07:32:09;;;;;;;24.60;6.07;;;1.90;99.90;;;;;;4986591;28;20164;-80
2022/01/31 07:34:37;;;;;;;25.57;7.17;;;1.90;99.90;;;;;;4978876;28;20242;-82
2022/01/31 07:37:03;;;;;;;22.53;5.87;;;1.90;99.90;;;;;;4971873;28;20218;-81
2022/01/31 07:39:29;;;;;;;24.03;5.87;;;1.90;99.90;;;;;;4970089;28;20188;-80
2022/01/31 07:41:55;;;;;;;21.47;6.07;;;1.80;99.90;;;;;;4973853;28;20266;-80
2022/01/31 07:44:21;;;;;;;27.63;7.03;;;1.80;99.90;;;;;;4983926;28;20182;-80
2022/01/31 07:46:49;;;;;;;24.63;7.13;;;1.80;99.90;;;;;;4968141;28;20359;-80
2022/01/31 07:49:15;;;;;;;29.47;5.90;;;1.80;99.90;;;;;;4984488;28;20243;-80
2022/01/31 07:51:41;;;;;;;28.47;6.07;;;1.80;99.90;;;;;;4978134;28;20188;-80
2022/01/31 07:54:08;;;;;;;20.47;6.07;;;1.70;99.90;;;;;;4974289;28;20176;-80
2022/01/31 07:56:34;;;;;;;24.20;6.37;;;1.70;99.90;;;;;;4972724;28;20183;-81
2022/01/31 07:59:01;;;;;;;25.97;5.90;;;1.60;99.90;;;;;;4976110;28;20233;-80
2022/01/31 08:01:27;;;;;;;27.53;6.50;;;1.60;99.90;;;;;;4970884;28;20581;-80
2022/01/31 08:03:53;;;;;;;26.63;6.63;;;1.60;99.90;;;;;;4985603;28;20238;-81
2022/01/31 08:06:19;;;;;;;23.80;6.10;;;1.60;99.90;;;;;;4984952;28;20215;-81
2022/01/31 08:08:45;;;;;;;25.90;7.60;;;1.70;99.90;;;;;;4978819;28;20171;-81
2022/01/31 08:11:11;;;;;;;25.40;6.50;;;1.70;99.90;;;;;;4975889;28;20262;-81
2022/01/31 08:13:38;;;;;;;31.27;7.23;;;1.70;99.90;;;;;;4965102;28;20188;-81
2022/01/31 08:18:45;;;;;;;20.93;7.30;;;1.80;99.90;;;;;;4979845;28;20294;-80
2022/01/31 08:21:14;;;;;;;30.27;6.80;;;1.80;99.90;;;;;;4981743;28;20183;-79
2022/01/31 08:23:41;;;;;;;22.60;6.57;;;1.90;99.90;;;;;;4976368;28;20179;-81
2022/01/31 08:26:11;;;;;;;27.63;7.73;;;1.90;99.90;;;;;;4974815;28;20238;-80
2022/01/31 08:28:50;;;;;;;25.37;7.17;;;1.90;99.90;;;;;;4983485;28;20204;-80
2022/01/31 08:31:22;;;;;;;24.97;7.53;;;1.80;99.90;;;;;;4976586;28;20167;-81
2022/01/31 08:36:26;;;;;;;26.80;7.17;;;1.80;99.90;;;;;;4988518;28;20171;-81
2022/01/31 08:38:52;;;;;;;22.43;8.03;;;1.80;99.90;;;;;;4982582;28;20182;-81
2022/01/31 08:41:18;;;;;;;21.23;7.30;;;1.80;99.90;;;;;;4972512;28;20180;-81
2022/01/31 08:43:45;;;;;;;30.03;8.10;;;1.80;99.90;;;;;;4982166;28;20277;-80
2022/01/31 08:46:13;;;;;;;27.37;7.73;;;1.80;99.90;;;;;;4977166;28;20229;-81
2022/01/31 08:48:40;;;;;;;28.23;8.03;;;1.90;99.90;;;;;;4963195;28;20196;-80
2022/01/31 08:51:09;;;;;;;27.40;8.53;;;1.90;99.90;;;;;;4976812;28;20178;-80
2022/01/31 08:53:39;;;;;;;24.87;8.10;;;1.90;99.90;;;;;;4969694;28;20243;-81
2022/01/31 08:56:10;;;;;;;24.47;8.47;;;1.80;99.90;;;;;;4969497;28;20190;-81
2022/01/31 08:58:42;;;;;;;22.33;8.20;;;1.80;99.90;;;;;;4974297;28;20204;-80
2022/01/31 09:01:09;;;;;;;26.17;7.97;;;1.90;99.90;;;;;;4985713;28;20326;-80
2022/01/31 09:06:11;;;;;;;28.17;8.73;;;1.90;99.90;;;;;;5000521;28;20199;-80
2022/01/31 09:08:38;;;;;;;22.97;8.07;;;2.00;99.90;;;;;;4974931;28;20195;-80
2022/01/31 09:11:05;;;;;;;31.70;8.33;;;2.10;99.90;;;;;;4971647;28;20180;-81
2022/01/31 09:13:34;;;;;;;23.13;8.30;;;2.20;99.90;;;;;;4969669;28;20211;-81
2022/01/31 09:16:09;;;;;;;31.77;9.10;;;2.40;99.90;;;;;;4983638;28;20206;-80
2022/01/31 09:18:35;;;;;;;32.77;8.57;;;2.30;99.90;;;;;;4974742;28;20262;-82
2022/01/31 09:21:04;;;;;;;31.33;9.23;;;2.30;99.90;;;;;;4975663;28;20184;-80
2022/01/31 09:23:30;;;;;;;32.67;8.83;;;2.40;99.90;;;;;;4984842;28;20199;-82
2022/01/31 09:25:57;;;;;;;26.33;8.67;;;2.40;99.90;;;;;;4969249;28;20200;-81
2022/01/31 09:28:24;;;;;;;25.37;8.73;;;2.40;99.90;;;;;;4981207;28;20199;-81
2022/01/31 09:30:53;;;;;;;30.53;8.83;;;2.40;99.90;;;;;;4980333;28;20183;-80
2022/01/31 09:33:19;;;;;;;22.70;8.20;;;2.40;99.90;;;;;;4983236;28;20198;-80
2022/01/31 09:35:49;;;;;;;22.87;8.17;;;2.40;99.90;;;;;;4974113;28;20210;-81
2022/01/31 09:41:43;;;;;;;22.83;7.70;;;2.40;99.90;;;;;;5029809;28;20228;-80
2022/01/31 09:45:04;;;;;;;24.23;8.57;;;2.30;99.90;;;;;;5025770;28;20185;-81
2022/01/31 09:50:28;;;;;;;16.30;6.53;;;2.20;99.90;;;;;;5034336;28;20186;-81
2022/01/31 09:52:57;;;;;;;15.27;6.80;;;2.40;99.90;;;;;;4999775;28;20231;-82
2022/01/31 09:55:36;;;;;;;21.90;6.90;;;2.40;99.90;;;;;;5008911;28;20185;-82
2022/01/31 09:58:19;;;;;;;18.67;6.80;;;2.40;99.90;;;;;;5016467;28;20198;-82
2022/01/31 10:01:20;;;;;;;10.83;6.63;;;2.40;99.90;;;;;;5022354;28;20249;-82
2022/01/31 10:04:02;;;;;;;14.37;7.07;;;2.40;99.90;;;;;;5015452;28;20178;-81
2022/01/31 10:09:38;;;;;;;16.37;6.57;;;2.70;99.90;;;;;;5019522;28;20210;-82
2022/01/31 10:19:15;;;;;;;16.37;6.97;;;3.00;99.90;;;;;;5031961;28;20201;-83
2022/01/31 10:22:09;;;;;;;13.77;6.57;;;3.10;99.90;;;;;;5016296;28;20236;-83
2022/01/31 10:25:05;;;;;;;14.57;6.10;;;3.20;99.90;;;;;;5006292;28;20194;-81
2022/01/31 10:27:41;;;;;;;11.73;5.37;;;3.20;99.90;;;;;;5015346;28;20591;-82
2022/01/31 10:33:49;;;;;;;;;;;;;;;;;;;;;
2022/01/31 10:36:35;;;;;;;13.00;5.70;;;3.00;99.90;;;;;;5011770;28;20218;-81
2022/01/31 10:57:07;;;;;;;12.67;5.80;;;3.20;99.90;;;;;;5030814;28;20273;-84
2022/01/31 11:00:25;;;;;;;14.60;6.37;;;3.30;99.90;;;;;;5016598;28;20210;-84
2022/01/31 11:03:38;;;;;;;14.07;6.53;;;3.30;99.90;;;;;;5027932;28;20286;-82
2022/01/31 11:10:00;;;;;;;11.97;7.10;;;3.30;99.90;;;;;;5034800;28;20209;-83
2022/01/31 11:12:52;;;;;;;17.00;7.37;;;3.40;99.90;;;;;;5018857;28;20170;-82
2022/01/31 11:16:58;;;;;;;;;;;;;;;;;;;;;
2022/01/31 11:20:44;;;;;;;;;;;;;;;;;;;;;
2022/01/31 11:32:15;;;;;;;9.80;5.83;;;3.60;99.90;;;;;;4973685;28;20213;-82
2022/01/31 11:36:25;;;;;;;;;;;;;;;;;;;;;
2022/01/31 11:40:00;;;;;;;;;;;;;;;;;;;;;
2022/01/31 11:47:50;;;;;;;;;;;;;;;;;;;;;
2022/01/31 12:03:15;;;;;;;;;;;;;;;;;;;;;
2022/01/31 12:45:55;;;;;;;;;;;;;;;;;;;;;
2022/01/31 12:52:53;;;;;;;11.57;5.17;;;4.10;99.90;;;;;;4937944;29;20245;-81
2022/01/31 12:56:40;;;;;;;;;;;;;;;;;;;;;
2022/01/31 13:09:43;;;;;;;9.87;5.63;;;4.10;99.90;;;;;;4896420;29;20284;-85
2022/01/31 13:33:36;;;;;;;12.20;5.60;;;4.30;99.90;;;;;;4888132;29;20202;-84
2022/01/31 14:22:48;;;;;;;;;;;;;;;;;;;;;
2022/01/31 14:30:48;;;;;;;12.83;7.23;;;4.30;99.90;;;;;;4956241;28;20279;-82
2022/01/31 14:34:44;;;;;;;;;;;;;;;;;;;;;
2022/01/31 14:49:47;;;;;;;;;;;;;;;;;;;;;
2022/01/31 14:53:34;;;;;;;14.83;7.57;;;3.90;99.90;;;;;;4966515;28;20282;-82
2022/01/31 14:57:14;;;;;;;;;;;;;;;;;;;;;
2022/01/31 15:01:01;;;;;;;;;;;;;;;;;;;;;
2022/01/31 15:03:51;;;;;;;17.43;8.00;;;4.10;99.90;;;;;;4977098;28;20361;-82
2022/01/31 15:10:41;;;;;;;19.10;7.97;;;4.10;99.90;;;;;;4930914;29;20213;-83
2022/01/31 15:13:54;;;;;;;;;;;;;;;;;;;;;
2022/01/31 15:16:59;;;;;;;16.67;8.27;;;4.00;99.90;;;;;;4947750;29;20185;-82
2022/01/31 15:20:21;;;;;;;14.77;7.40;;;4.00;99.90;;;;;;4936370;29;20248;-82
2022/01/31 15:23:24;;;;;;;13.37;7.53;;;4.00;99.90;;;;;;4925497;29;20208;-82
2022/01/31 15:34:02;;;;;;;19.10;9.87;;;3.90;99.90;;;;;;4924912;29;20241;-82
2022/01/31 15:37:38;;;;;;;20.13;9.80;;;3.90;99.90;;;;;;4919056;29;20277;-82
2022/01/31 15:45:07;;;;;;;18.70;9.67;;;3.90;99.90;;;;;;4944472;29;20536;-82
2022/01/31 15:48:17;;;;;;;26.20;10.73;;;3.80;99.90;;;;;;4943344;28;20228;-80
2022/01/31 15:51:06;;;;;;;20.37;9.93;;;3.80;99.90;;;;;;4916290;29;20228;-80
2022/01/31 15:53:33;;;;;;;22.90;10.60;;;3.70;99.90;;;;;;4936813;29;20177;-81
2022/01/31 15:56:01;;;;;;;30.43;10.80;;;3.70;99.90;;;;;;4931865;29;20231;-80
2022/01/31 15:58:29;;;;;;;18.77;10.70;;;3.70;99.90;;;;;;4921502;29;20216;-81
2022/01/31 16:01:00;;;;;;;19.57;9.90;;;3.70;99.90;;;;;;4919992;29;20178;-82
2022/01/31 16:03:26;;;;;;;21.53;11.07;;;3.70;99.90;;;;;;4936753;29;20192;-81
2022/01/31 16:05:52;;;;;;;25.37;11.10;;;3.70;99.90;;;;;;4939167;29;20196;-82
2022/01/31 16:08:18;;;;;;;23.90;10.53;;;3.70;99.90;;;;;;4939810;28;20252;-82
2022/01/31 16:10:47;;;;;;;23.47;10.80;;;3.70;99.90;;;;;;4923638;29;20333;-78
2022/01/31 16:13:20;;;;;;;24.03;11.27;;;3.70;99.90;;;;;;4937870;29;20268;-78
2022/01/31 16:15:51;;;;;;;17.93;9.80;;;3.80;99.90;;;;;;4920067;29;20185;-78
2022/01/31 16:18:18;;;;;;;21.33;10.77;;;3.80;99.90;;;;;;4916291;28;20184;-78
2022/01/31 16:20:45;;;;;;;23.10;11.00;;;3.70;99.90;;;;;;4914411;29;20181;-80
2022/01/31 16:23:11;;;;;;;22.50;10.10;;;3.60;99.90;;;;;;4928036;29;20189;-77
2022/01/31 16:25:44;;;;;;;22.93;10.27;;;3.60;99.90;;;;;;4916340;29;20199;-76
2022/01/31 16:28:16;;;;;;;21.37;10.20;;;3.60;99.90;;;;;;4914592;29;20198;-77
2022/01/31 16:30:45;;;;;;;25.83;10.30;;;3.60;99.90;;;;;;4917766;29;20178;-76
2022/01/31 16:33:11;;;;;;;21.23;8.87;;;3.70;99.90;;;;;;4921503;29;20173;-79
2022/01/31 16:35:37;;;;;;;22.13;9.50;;;3.60;99.90;;;;;;4918654;29;20181;-80
2022/01/31 16:38:04;;;;;;;20.90;10.13;;;3.70;99.90;;;;;;4936552;28;20177;-80
2022/01/31 16:40:31;;;;;;;18.97;10.57;;;3.70;99.90;;;;;;4916322;29;20196;-80
2022/01/31 16:42:59;;;;;;;22.03;11.17;;;3.70;99.90;;;;;;4920908;29;20177;-80
2022/01/31 16:45:26;;;;;;;26.30;11.07;;;3.70;99.90;;;;;;4934204;29;20613;-81
2022/01/31 16:47:52;;;;;;;24.67;10.53;;;3.60;99.90;;;;;;4921084;29;20184;-82
2022/01/31 16:50:21;;;;;;;26.33;10.90;;;3.70;99.90;;;;;;4920579;29;20579;-81
2022/01/31 16:52:49;;;;;;;18.27;9.93;;;3.90;99.90;;;;;;4921068;29;20169;-82
2022/01/31 16:55:16;;;;;;;20.30;10.17;;;3.90;99.90;;;;;;4936129;29;20213;-81
2022/01/31 16:57:44;;;;;;;25.73;10.90;;;4.00;99.90;;;;;;4921639;29;20200;-81
2022/01/31 17:00:12;;;;;;;24.20;10.90;;;4.10;99.90;;;;;;4938491;29;20197;-81
2022/01/31 17:02:38;;;;;;;22.50;9.20;;;4.20;99.90;;;;;;4952017;29;20280;-81
2022/01/31 17:05:08;;;;;;;25.20;9.87;;;4.10;99.90;;;;;;4914782;29;20204;-81
2022/01/31 17:07:39;;;;;;;24.37;10.10;;;4.00;99.90;;;;;;4913245;29;20200;-80
2022/01/31 17:10:07;;;;;;;20.23;10.03;;;4.00;99.90;;;;;;4921576;29;20201;-81
2022/01/31 17:12:42;;;;;;;25.53;10.70;;;4.00;99.90;;;;;;4920650;29;20176;-81
2022/01/31 17:15:13;;;;;;;25.40;9.13;;;3.80;99.90;;;;;;4954817;29;20231;-81
2022/01/31 17:17:42;;;;;;;19.33;8.13;;;3.70;99.90;;;;;;4936535;29;20192;-81
2022/01/31 17:20:09;;;;;;;16.00;7.93;;;3.80;99.90;;;;;;4939656;29;20220;-81
2022/01/31 17:22:37;;;;;;;22.37;9.23;;;3.90;99.90;;;;;;4949485;29;20204;-82
2022/01/31 17:25:04;;;;;;;26.20;9.40;;;3.90;99.90;;;;;;4940107;29;20185;-81
2022/01/31 17:27:31;;;;;;;22.03;8.87;;;3.70;99.90;;;;;;4936428;29;20201;-80
2022/01/31 17:29:58;;;;;;;19.43;8.40;;;3.70;99.90;;;;;;4942540;29;20201;-80
2022/01/31 17:32:23;;;;;;;20.70;9.40;;;3.60;99.90;;;;;;4921254;29;20245;-81
2022/01/31 17:34:49;;;;;;;20.60;9.70;;;3.70;99.90;;;;;;4933666;29;20224;-81
2022/01/31 17:37:17;;;;;;;19.80;9.70;;;3.90;99.90;;;;;;4928337;29;20181;-81
2022/01/31 17:39:47;;;;;;;23.70;9.60;;;3.90;99.90;;;;;;4923289;29;20225;-81
2022/01/31 17:42:55;;;;;;;25.30;9.87;;;4.00;99.90;;;;;;4916661;29;20663;-81
2022/01/31 17:45:27;;;;;;;23.70;10.30;;;3.90;99.90;;;;;;4922285;29;20276;-82
2022/01/31 17:56:25;;;;;;;26.73;10.73;;;3.40;99.90;;;;;;4870826;29;20184;-80
2022/01/31 18:18:51;;;;;;;28.60;12.03;;;2.90;99.90;;;;;;5505643;23;20230;-80
2022/01/31 18:21:20;;;;;;;29.90;12.20;;;2.90;99.90;;;;;;4959669;28;20240;-81
2022/01/31 18:24:09;;;;;;;30.53;12.20;;;2.90;99.90;;;;;;4950552;28;20191;-81